Time;durP1;ratioP1;P1;durP2;ratioP2;P2;SDS_P1;SDS_P2;PMS_P1;PMS_P2;Temp;Humidity;BMP_temperature;BMP_pressure;BME280_temperature;BME280_humidity;BME280_pressure;Samples;Min_cycle;Max_cycle;Signal;HPM_P1;HPM_P2
2020/12/15 00:00:00;;;;;;;4.80;1.55;;;;;;;16.32;52.89;100793.81;4983682;28;20133;-43
2020/12/15 00:02:25;;;;;;;8.10;1.95;;;;;;;16.19;52.87;100796.03;4982935;28;20042;-42
2020/12/15 00:04:50;;;;;;;7.20;1.52;;;;;;;16.13;52.92;100797.16;4981932;28;20042;-39
2020/12/15 00:07:16;;;;;;;4.72;1.45;;;;;;;16.13;56.36;100799.84;4983455;28;20038;-42
2020/12/15 00:09:42;;;;;;;6.90;1.85;;;;;;;16.17;55.96;100803.63;4981691;28;20451;-40
2020/12/15 00:12:07;;;;;;;14.38;2.80;;;;;;;16.14;56.30;100798.75;4983381;28;20746;-45
2020/12/15 00:14:33;;;;;;;4.15;1.58;;;;;;;16.14;56.71;100785.22;4981588;28;20051;-44
2020/12/15 00:16:59;;;;;;;0.90;0.50;;;;;;;16.17;55.50;100794.72;4980563;28;20043;-45
2020/12/15 00:19:25;;;;;;;4.63;1.33;;;;;;;16.26;54.53;100787.63;4980497;28;20085;-41
2020/12/15 00:21:52;;;;;;;7.13;1.75;;;;;;;16.29;53.41;100789.00;4978048;28;20519;-41
2020/12/15 00:24:18;;;;;;;3.58;1.73;;;;;;;16.20;52.78;100788.75;4974330;28;20042;-41
2020/12/15 00:26:44;;;;;;;6.43;2.05;;;;;;;16.18;52.78;100777.38;4979268;28;20031;-41
2020/12/15 00:29:13;;;;;;;7.55;2.08;;;;;;;16.18;52.26;100778.22;4973682;28;20054;-40
2020/12/15 00:31:38;;;;;;;3.83;1.73;;;;;;;16.22;52.23;100779.25;4977942;28;20034;-44
2020/12/15 00:34:04;;;;;;;5.57;3.50;;;;;;;16.23;52.50;100782.75;4979656;28;20089;-42
2020/12/15 00:36:30;;;;;;;4.22;1.52;;;;;;;16.24;52.23;100784.41;4980224;28;20108;-42
2020/12/15 00:38:55;;;;;;;2.42;1.23;;;;;;;16.18;52.32;100783.63;4978990;28;20034;-42
2020/12/15 00:41:21;;;;;;;2.80;2.17;;;;;;;16.11;53.12;100788.50;4980318;28;20030;-41
2020/12/15 00:43:47;;;;;;;2.60;1.85;;;;;;;16.11;52.32;100787.69;4978087;28;20134;-40
2020/12/15 00:46:14;;;;;;;5.78;1.85;;;;;;;16.03;53.49;100783.66;4979920;28;20093;-43
2020/12/15 00:48:40;;;;;;;4.55;2.53;;;;;;;16.04;52.88;100796.06;4976945;28;20368;-44
2020/12/15 00:51:05;;;;;;;5.70;2.55;;;;;;;16.11;52.01;100796.63;4979405;28;20511;-44
2020/12/15 00:53:31;;;;;;;3.65;1.02;;;;;;;16.02;51.89;100793.66;4975897;28;20165;-42
2020/12/15 00:55:57;;;;;;;4.68;1.48;;;;;;;16.01;52.76;100800.16;4980231;28;20034;-42
2020/12/15 00:58:22;;;;;;;8.82;2.00;;;;;;;16.01;52.67;100799.34;4968592;28;20327;-44
2020/12/15 01:00:49;;;;;;;4.45;2.15;;;;;;;16.11;52.77;100804.75;4975142;28;20038;-41
2020/12/15 01:03:14;;;;;;;3.28;1.92;;;;;;;16.10;53.28;100805.00;4979847;28;20041;-44
2020/12/15 01:05:40;;;;;;;2.05;0.82;;;;;;;16.08;53.82;100810.69;4981698;28;20053;-40
2020/12/15 01:08:05;;;;;;;7.93;2.38;;;;;;;16.01;54.35;100820.97;4973935;28;20038;-44
2020/12/15 01:10:30;;;;;;;4.68;1.92;;;;;;;15.98;54.63;100821.53;4975934;28;20415;-42
2020/12/15 01:12:56;;;;;;;2.53;1.60;;;;;;;16.02;54.64;100814.47;4975205;28;20038;-41
2020/12/15 01:15:22;;;;;;;4.70;2.63;;;;;;;16.00;54.15;100817.44;4976252;28;20030;-39
2020/12/15 01:17:47;;;;;;;5.72;2.15;;;;;;;16.00;53.75;100827.47;4983183;28;20467;-42
2020/12/15 01:20:13;;;;;;;3.03;1.77;;;;;;;15.97;53.30;100814.47;4982476;28;20375;-40
2020/12/15 01:22:38;;;;;;;6.05;1.65;;;;;;;15.87;53.35;100820.72;4976497;28;20047;-41
2020/12/15 01:25:04;;;;;;;7.55;2.30;;;;;;;15.71;53.82;100822.63;4981088;28;20037;-43
2020/12/15 01:27:30;;;;;;;4.45;1.42;;;;;;;15.75;53.80;100812.91;4978513;28;20109;-39
2020/12/15 01:29:55;;;;;;;2.15;1.35;;;;;;;15.72;53.90;100807.19;4978310;28;20418;-39
2020/12/15 01:32:20;;;;;;;5.57;2.70;;;;;;;15.79;53.57;100808.56;4977093;28;20070;-38
2020/12/15 01:34:46;;;;;;;2.67;1.13;;;;;;;15.74;53.73;100811.25;4979459;28;20057;-40
2020/12/15 01:37:11;;;;;;;8.98;1.70;;;;;;;15.74;53.56;100800.44;4986675;28;20038;-39
2020/12/15 01:39:37;;;;;;;4.20;1.35;;;;;;;15.72;53.71;100796.38;4985767;28;20026;-41
2020/12/15 01:42:02;;;;;;;2.47;1.63;;;;;;;15.66;53.56;100801.00;4987217;28;20528;-39
2020/12/15 01:44:28;;;;;;;8.40;1.65;;;;;;;15.69;53.29;100812.06;4986793;28;20034;-41
2020/12/15 01:46:53;;;;;;;2.80;1.42;;;;;;;15.76;53.09;100802.88;4985885;28;20470;-38
2020/12/15 01:49:19;;;;;;;3.13;1.50;;;;;;;15.80;55.09;100812.09;4986938;28;20093;-41
2020/12/15 01:51:48;;;;;;;2.90;1.67;;;;;;;15.81;54.13;100809.13;4977543;28;20463;-38
2020/12/15 01:54:14;;;;;;;4.97;1.15;;;;;;;15.68;53.76;100813.13;4980923;28;20081;-40
2020/12/15 01:56:39;;;;;;;1.08;0.82;;;;;;;15.70;53.75;100810.16;4979139;28;20027;-39
2020/12/15 01:59:05;;;;;;;13.60;1.85;;;;;;;15.70;54.15;100810.16;4976875;28;20674;-41
2020/12/15 02:01:42;;;;;;;7.10;1.58;;;;;;;15.60;54.63;100800.19;4978071;28;20027;-42
2020/12/15 02:04:08;;;;;;;5.13;1.20;;;;;;;15.61;55.40;100803.69;4976998;28;20122;-41
2020/12/15 02:06:33;;;;;;;3.67;0.85;;;;;;;15.50;55.58;100816.41;4978573;28;20117;-42
2020/12/15 02:08:59;;;;;;;2.10;1.15;;;;;;;15.53;55.13;100828.56;4977317;28;20058;-41
2020/12/15 02:11:24;;;;;;;1.60;0.73;;;;;;;15.49;55.71;100828.28;4977265;28;20232;-39
2020/12/15 02:13:50;;;;;;;8.18;1.67;;;;;;;15.55;56.59;100829.91;4978905;28;20034;-41
2020/12/15 02:16:15;;;;;;;3.05;1.67;;;;;;;15.61;57.35;100833.44;4976547;28;20030;-42
2020/12/15 02:18:41;;;;;;;4.35;2.60;;;;;;;15.44;57.40;100836.38;4981090;28;20034;-43
2020/12/15 02:21:09;;;;;;;3.88;2.08;;;;;;;15.35;57.81;100838.81;4983987;28;20031;-38
2020/12/15 02:23:35;;;;;;;7.10;3.03;;;;;;;15.29;58.01;100842.59;4982233;28;20045;-39
2020/12/15 02:26:02;;;;;;;4.00;2.53;;;;;;;15.30;58.56;100836.09;4981057;28;20382;-41
2020/12/15 02:28:28;;;;;;;7.13;2.25;;;;;;;15.23;58.83;100825.56;4981623;28;20037;-41
2020/12/15 02:30:54;;;;;;;4.93;2.40;;;;;;;15.18;59.28;100846.34;4981851;28;20038;-41
2020/12/15 02:33:19;;;;;;;4.75;3.05;;;;;;;15.17;59.08;100847.44;4980286;28;20039;-41
2020/12/15 02:35:45;;;;;;;8.05;4.43;;;;;;;15.10;59.21;100851.19;4982929;28;20485;-39
2020/12/15 02:38:10;;;;;;;7.60;3.65;;;;;;;15.00;59.33;100843.06;4980464;28;20026;-41
2020/12/15 02:40:36;;;;;;;6.28;3.35;;;;;;;14.91;59.88;100844.66;4982601;28;20031;-40
2020/12/15 02:43:01;;;;;;;5.65;1.95;;;;;;;14.92;59.65;100832.81;4980862;28;20057;-40
2020/12/15 02:45:27;;;;;;;6.65;3.15;;;;;;;14.90;60.02;100837.63;4981127;28;20679;-39
2020/12/15 02:47:52;;;;;;;5.97;2.70;;;;;;;14.91;59.82;100836.56;4981791;28;20523;-38
2020/12/15 02:50:22;;;;;;;6.78;2.88;;;;;;;14.91;59.02;100841.97;4983392;28;20467;-42
2020/12/15 02:52:48;;;;;;;9.07;2.60;;;;;;;14.87;58.99;100844.41;4991109;28;20069;-40
2020/12/15 02:55:13;;;;;;;6.57;2.60;;;;;;;14.85;59.28;100851.13;4980238;28;20459;-39
2020/12/15 02:57:39;;;;;;;4.05;1.10;;;;;;;14.92;58.28;100846.31;4982258;28;20093;-39
2020/12/15 03:00:09;;;;;;;7.45;2.03;;;;;;;14.96;58.85;100833.88;4980121;28;20026;-38
2020/12/15 03:02:35;;;;;;;3.17;1.33;;;;;;;14.91;59.10;100829.28;4981619;28;20031;-37
2020/12/15 03:05:00;;;;;;;4.05;1.80;;;;;;;14.83;58.81;100826.28;4980335;28;20448;-41
2020/12/15 03:07:26;;;;;;;3.25;1.13;;;;;;;14.85;58.69;100816.84;4980310;28;20026;-39
2020/12/15 03:09:51;;;;;;;2.20;0.88;;;;;;;14.72;58.83;100812.75;4981600;28;20184;-39
2020/12/15 03:12:21;;;;;;;13.15;3.38;;;;;;;14.69;59.10;100813.31;4980300;28;20486;-39
2020/12/15 03:14:48;;;;;;;2.72;1.75;;;;;;;14.71;59.22;100799.56;4987844;28;20030;-39
2020/12/15 03:17:13;;;;;;;4.72;2.00;;;;;;;14.69;59.26;100797.13;4990196;28;20026;-38
2020/12/15 03:19:39;;;;;;;6.22;1.25;;;;;;;14.63;59.01;100798.16;4987859;28;20080;-38
2020/12/15 03:22:04;;;;;;;12.48;1.80;;;;;;;14.57;59.61;100807.28;4979764;28;20239;-38
2020/12/15 03:24:30;;;;;;;3.03;0.77;;;;;;;14.50;59.37;100815.63;4980744;28;20503;-43
2020/12/15 03:26:55;;;;;;;10.52;1.80;;;;;;;14.48;59.52;100825.88;4980694;28;20038;-37
2020/12/15 03:29:21;;;;;;;3.83;1.08;;;;;;;14.54;59.24;100821.31;4979348;28;20482;-38
2020/12/15 03:31:46;;;;;;;4.30;1.95;;;;;;;14.51;59.08;100821.81;4981242;28;20030;-41
2020/12/15 03:34:12;;;;;;;1.33;0.88;;;;;;;14.45;59.17;100823.69;4979529;28;20066;-38
2020/12/15 03:36:38;;;;;;;6.97;1.67;;;;;;;14.48;59.26;100827.75;4981550;28;20050;-38
2020/12/15 03:39:06;;;;;;;3.45;1.90;;;;;;;14.51;59.12;100833.41;4979403;28;20030;-38
2020/12/15 03:41:31;;;;;;;7.95;1.00;;;;;;;14.41;59.29;100830.69;4980313;28;20397;-41
2020/12/15 03:43:57;;;;;;;2.83;0.93;;;;;;;14.44;59.24;100823.94;4985624;28;20038;-38
2020/12/15 03:46:22;;;;;;;7.47;1.35;;;;;;;14.45;59.34;100828.28;4989480;28;20034;-39
2020/12/15 03:48:48;;;;;;;7.80;1.40;;;;;;;14.38;59.68;100823.94;4987349;28;20022;-40
2020/12/15 03:51:13;;;;;;;2.95;1.27;;;;;;;14.28;60.54;100833.84;4981611;28;20047;-38
2020/12/15 03:53:38;;;;;;;3.72;1.60;;;;;;;14.30;60.17;100820.91;4981341;28;20102;-38
2020/12/15 03:56:04;;;;;;;7.05;1.80;;;;;;;14.36;60.27;100828.78;4978948;28;20073;-41
2020/12/15 03:58:29;;;;;;;1.77;0.90;;;;;;;14.28;59.86;100821.19;4979801;28;20022;-39
2020/12/15 04:00:55;;;;;;;1.17;0.57;;;;;;;14.30;59.58;100816.31;4980050;28;20534;-39
2020/12/15 04:03:20;;;;;;;3.60;0.95;;;;;;;14.17;60.22;100822.22;4978809;28;20074;-40
2020/12/15 04:05:46;;;;;;;3.25;1.17;;;;;;;14.15;60.46;100829.75;4986501;28;20379;-42
2020/12/15 04:08:11;;;;;;;1.95;1.27;;;;;;;14.17;60.59;100828.41;4978787;28;20035;-38
2020/12/15 04:10:37;;;;;;;2.28;1.25;;;;;;;14.17;60.33;100836.50;4980720;28;20097;-39
2020/12/15 04:13:02;;;;;;;3.22;1.60;;;;;;;14.23;60.40;100837.31;4978866;28;20066;-39
2020/12/15 04:15:27;;;;;;;2.63;1.33;;;;;;;14.16;60.62;100844.84;4979341;28;20031;-39
2020/12/15 04:17:53;;;;;;;4.25;1.83;;;;;;;14.06;60.97;100851.00;4979750;28;20096;-43
2020/12/15 04:20:18;;;;;;;5.25;1.15;;;;;;;14.09;60.76;100855.84;4981844;28;20054;-38
2020/12/15 04:22:44;;;;;;;11.38;1.40;;;;;;;14.00;60.64;100855.53;4980785;28;20042;-40
2020/12/15 04:25:09;;;;;;;5.53;1.25;;;;;;;13.99;61.02;100848.53;4977883;28;20035;-40
2020/12/15 04:27:35;;;;;;;3.30;1.23;;;;;;;14.04;60.42;100847.72;4980100;28;20065;-38
2020/12/15 04:30:00;;;;;;;2.30;0.88;;;;;;;13.96;60.65;100849.03;4978982;28;20022;-40
2020/12/15 04:32:26;;;;;;;10.63;1.67;;;;;;;13.92;61.37;100839.00;4978779;28;20034;-40
2020/12/15 04:34:52;;;;;;;2.22;1.67;;;;;;;13.89;61.07;100844.94;4979940;28;20037;-38
2020/12/15 04:37:18;;;;;;;9.63;2.15;;;;;;;13.96;60.74;100843.63;4978018;28;20069;-39
2020/12/15 04:39:44;;;;;;;6.95;1.83;;;;;;;13.95;61.10;100849.28;4980221;28;20463;-39
2020/12/15 04:42:09;;;;;;;4.65;1.33;;;;;;;13.95;60.77;100852.78;4977337;28;20113;-37
2020/12/15 04:44:35;;;;;;;4.30;1.38;;;;;;;13.85;61.75;100862.69;4979914;28;20023;-39
2020/12/15 04:47:23;;;;;;;6.95;2.33;;;;;;;13.75;61.60;100868.81;4978258;28;20043;-42
2020/12/15 04:50:01;;;;;;;6.40;1.25;;;;;;;13.77;62.25;100870.19;4984726;28;20070;-39
2020/12/15 04:52:52;;;;;;;4.30;1.05;;;;;;;13.75;61.73;100874.22;4978603;28;20066;-37
2020/12/15 04:55:19;;;;;;;3.50;1.17;;;;;;;13.72;62.03;100875.53;4978185;28;20043;-37
2020/12/15 04:57:46;;;;;;;2.33;1.23;;;;;;;13.66;62.34;100875.75;4985059;28;20088;-39
2020/12/15 05:00:12;;;;;;;6.13;2.55;;;;;;;13.71;61.95;100879.31;4978054;28;20038;-38
2020/12/15 05:02:43;;;;;;;1.50;0.73;;;;;;;13.82;61.33;100874.81;4979494;28;20357;-40
2020/12/15 05:05:09;;;;;;;;;;;;;;;13.72;61.38;100874.72;4978192;28;20031;-37
2020/12/15 05:07:40;;;;;;;4.88;1.35;;;;;;;13.59;61.90;100876.78;4979466;28;19914;-41
2020/12/15 05:10:07;;;;;;;3.20;1.38;;;;;;;13.42;62.49;100874.19;4977797;28;20125;-39
2020/12/15 05:12:32;;;;;;;3.65;1.50;;;;;;;13.54;62.30;100878.63;4978799;28;20496;-42
2020/12/15 05:14:58;;;;;;;2.78;1.33;;;;;;;13.56;62.54;100887.25;4978456;28;20033;-40
2020/12/15 05:17:25;;;;;;;3.58;1.42;;;;;;;13.55;62.18;100878.38;4977625;28;20467;-41
2020/12/15 05:19:50;;;;;;;3.20;1.52;;;;;;;13.55;62.35;100878.38;4982150;28;20468;-38
2020/12/15 05:22:16;;;;;;;14.05;3.55;;;;;;;13.52;62.47;100886.16;4977121;28;20030;-41
2020/12/15 05:24:48;;;;;;;6.45;2.00;;;;;;;13.52;62.75;100895.03;4979657;28;20049;-37
2020/12/15 05:27:29;;;;;;;1.70;1.55;;;;;;;13.54;62.93;100902.84;4977638;28;20121;-38
2020/12/15 05:30:07;;;;;;;7.00;1.80;;;;;;;13.61;62.59;100901.56;4986603;28;20550;-39
2020/12/15 05:32:32;;;;;;;14.45;2.47;;;;;;;13.47;62.83;100905.75;4985800;28;20133;-39
2020/12/15 05:35:08;;;;;;;6.07;2.53;;;;;;;13.58;62.51;100899.38;4986786;28;20515;-40
2020/12/15 05:37:34;;;;;;;4.75;2.45;;;;;;;13.34;63.06;100906.16;4985969;28;20031;-38
2020/12/15 05:40:01;;;;;;;4.63;2.40;;;;;;;13.34;63.14;100911.53;4987013;28;20045;-39
2020/12/15 05:42:27;;;;;;;7.22;2.70;;;;;;;13.28;63.33;100915.22;4987024;28;20418;-38
2020/12/15 05:44:56;;;;;;;6.68;3.15;;;;;;;13.29;63.08;100916.81;4985774;28;20031;-37
2020/12/15 05:47:23;;;;;;;6.90;3.80;;;;;;;13.42;63.12;100919.16;4986026;28;20360;-38
2020/12/15 05:49:51;;;;;;;9.55;2.95;;;;;;;13.33;63.22;100923.38;4986708;28;20129;-38
2020/12/15 05:52:16;;;;;;;5.93;1.75;;;;;;;13.31;63.41;100925.50;4987365;28;20034;-38
2020/12/15 05:54:42;;;;;;;6.00;1.42;;;;;;;13.48;63.08;100918.16;4985101;28;20057;-38
2020/12/15 05:57:08;;;;;;;9.70;1.55;;;;;;;13.39;63.04;100922.34;4987409;28;20065;-38
2020/12/15 05:59:35;;;;;;;5.20;2.47;;;;;;;13.34;63.46;100933.06;4985934;28;20069;-39
2020/12/15 06:02:08;;;;;;;2.75;2.08;;;;;;;13.39;62.88;100920.50;4986730;28;20056;-39
2020/12/15 06:04:39;;;;;;;2.90;1.33;;;;;;;13.43;63.18;100920.81;4986063;28;20037;-40
2020/12/15 06:07:05;;;;;;;;;;;;;;;13.44;63.14;100925.09;4977302;28;20471;-38
2020/12/15 06:09:34;;;;;;;7.63;2.22;;;;;;;13.38;63.00;100924.25;4978378;28;19949;-39
2020/12/15 06:12:01;;;;;;;7.18;6.40;;;;;;;13.34;63.09;100925.00;4977587;28;20483;-40
2020/12/15 06:14:27;;;;;;;15.02;6.18;;;;;;;13.37;63.19;100929.88;4982464;28;20030;-38
2020/12/15 06:16:54;;;;;;;3.78;2.47;;;;;;;13.46;62.49;100930.25;4978065;28;20031;-40
2020/12/15 06:19:21;;;;;;;5.10;2.13;;;;;;;13.37;63.07;100932.56;4981798;28;20658;-39
2020/12/15 06:21:53;;;;;;;19.13;4.50;;;;;;;13.40;63.29;100937.47;4976713;28;20486;-41
2020/12/15 06:24:38;;;;;;;8.73;2.55;;;;;;;13.32;62.56;100940.59;4976740;28;20022;-38
2020/12/15 06:27:06;;;;;;;13.00;3.95;;;;;;;13.34;63.04;100943.84;4987025;28;20383;-38
2020/12/15 06:29:37;;;;;;;12.27;4.82;;;;;;;13.35;63.26;100945.50;4985790;28;20110;-43
2020/12/15 06:32:23;;;;;;;7.75;4.13;;;;;;;13.16;63.47;100961.94;4986449;28;20034;-40
2020/12/15 06:34:50;;;;;;;10.57;6.38;;;;;;;13.05;64.17;100960.19;4984917;28;20043;-40
2020/12/15 06:37:16;;;;;;;16.15;9.35;;;;;;;13.14;63.95;100964.06;4986307;28;20243;-41
2020/12/15 06:39:55;;;;;;;9.00;6.13;;;;;;;13.14;63.73;100961.38;4984694;28;20109;-42
2020/12/15 06:42:20;;;;;;;7.43;5.00;;;;;;;12.99;64.04;100971.94;4986757;28;20045;-43
2020/12/15 06:44:46;;;;;;;13.07;6.68;;;;;;;13.04;64.36;100966.63;4984581;28;20035;-41
2020/12/15 06:47:12;;;;;;;5.65;4.22;;;;;;;13.18;63.84;100964.38;4986518;28;20416;-39
2020/12/15 06:49:38;;;;;;;6.63;4.10;;;;;;;13.20;63.30;100971.16;4985880;28;20096;-41
2020/12/15 06:52:06;;;;;;;5.43;3.55;;;;;;;13.15;63.40;100976.47;4982069;28;20027;-39
2020/12/15 06:54:34;;;;;;;11.00;4.38;;;;;;;13.13;63.36;100964.31;4977929;28;20058;-40
2020/12/15 06:57:08;;;;;;;12.05;4.47;;;;;;;13.17;63.55;100968.16;4977233;28;20038;-39
2020/12/15 06:59:38;;;;;;;4.70;3.40;;;;;;;13.03;63.92;100971.19;4978166;28;20039;-39
2020/12/15 07:02:11;;;;;;;8.40;2.90;;;;;;;12.94;64.46;100969.19;4976468;28;20035;-44
2020/12/15 07:04:47;;;;;;;21.90;5.75;;;;;;;13.01;64.37;100972.53;4978391;28;20034;-40
2020/12/15 07:07:15;;;;;;;5.00;3.92;;;;;;;13.03;63.74;100981.97;4980096;28;20030;-41
2020/12/15 07:09:41;;;;;;;10.68;5.93;;;;;;;12.95;64.44;100984.28;4982351;28;20041;-41
2020/12/15 07:12:25;;;;;;;9.57;8.45;;;;;;;13.00;64.60;100985.16;4980147;28;20482;-41
2020/12/15 07:14:50;;;;;;;11.55;6.20;;;;;;;12.99;64.61;100985.41;4988231;28;20074;-45
2020/12/15 07:17:17;;;;;;;16.92;6.35;;;;;;;13.00;63.90;100989.72;4990080;28;20053;-42
2020/12/15 07:19:43;;;;;;;12.50;6.13;;;;;;;12.86;64.53;100987.38;4987248;28;20375;-41
2020/12/15 07:22:09;;;;;;;18.95;6.90;;;;;;;12.98;64.56;100991.84;4983243;28;20042;-39
2020/12/15 07:24:35;;;;;;;8.95;6.72;;;;;;;12.91;64.26;100999.31;4988174;28;20117;-40
2020/12/15 07:27:01;;;;;;;19.90;11.02;;;;;;;12.86;64.82;100995.47;4989542;28;20038;-43
2020/12/15 07:29:27;;;;;;;17.95;10.05;;;;;;;12.97;64.51;100995.59;4989289;28;20036;-42
2020/12/15 07:31:53;;;;;;;50.95;14.85;;;;;;;12.99;64.79;101001.53;4987648;28;20135;-40
2020/12/15 07:34:19;;;;;;;19.25;10.80;;;;;;;12.97;65.06;101014.44;4990165;28;20442;-39
2020/12/15 07:36:48;;;;;;;29.50;11.98;;;;;;;12.88;65.02;101010.56;4987324;28;20038;-41
2020/12/15 07:39:14;;;;;;;19.58;9.68;;;;;;;12.92;65.01;101023.28;4989665;28;20035;-39
2020/12/15 07:41:40;;;;;;;20.40;9.77;;;;;;;12.91;65.15;101027.03;4987184;28;20034;-40
2020/12/15 07:44:16;;;;;;;26.75;10.85;;;;;;;13.00;65.39;101022.03;4989656;28;20069;-39
2020/12/15 07:46:46;;;;;;;14.73;11.15;;;;;;;13.09;64.77;101015.16;4988810;28;20037;-42
2020/12/15 07:49:13;;;;;;;24.42;18.30;;;;;;;13.08;64.98;101018.91;4983439;28;20038;-40
2020/12/15 07:51:39;;;;;;;19.33;12.98;;;;;;;12.88;66.16;101026.69;4980363;28;20026;-44
2020/12/15 07:54:05;;;;;;;25.05;13.55;;;;;;;12.97;65.34;101026.03;4979141;28;20363;-42
2020/12/15 07:56:31;;;;;;;23.48;14.13;;;;;;;13.01;64.83;101034.44;4980057;28;20064;-43
2020/12/15 07:58:58;;;;;;;30.45;21.00;;;;;;;13.03;65.07;101029.63;4984774;28;20066;-40
2020/12/15 08:01:31;;;;;;;34.38;26.20;;;;;;;13.09;64.90;101030.50;4979297;28;20030;-44
2020/12/15 08:04:05;;;;;;;26.10;17.40;;;;;;;13.11;65.03;101031.84;4979958;28;20085;-39
2020/12/15 08:06:37;;;;;;;29.75;17.95;;;;;;;13.19;64.91;101039.50;4980204;28;20065;-40
2020/12/15 08:09:04;;;;;;;22.98;17.52;;;;;;;13.28;64.93;101042.59;4981193;28;20057;-40
2020/12/15 08:11:29;;;;;;;26.25;16.33;;;;;;;13.15;65.81;101041.09;4982200;28;20035;-40
2020/12/15 08:13:55;;;;;;;29.45;18.35;;;;;;;13.14;66.20;101038.63;4979634;28;20458;-40
2020/12/15 08:16:22;;;;;;;21.98;18.00;;;;;;;13.10;66.07;101048.28;4983344;28;20034;-40
2020/12/15 08:18:49;;;;;;;24.33;17.73;;;;;;;13.13;65.79;101059.38;4986927;28;20077;-42
2020/12/15 08:21:17;;;;;;;31.05;18.77;;;;;;;13.14;66.14;101057.47;4980667;28;20109;-39
2020/12/15 08:23:52;;;;;;;32.08;21.98;;;;;;;13.11;65.80;101064.16;4980635;28;20040;-39
2020/12/15 08:26:20;;;;;;;37.65;20.10;;;;;;;13.07;65.55;101065.72;4978498;28;20066;-42
2020/12/15 08:28:47;;;;;;;22.88;20.20;;;;;;;13.15;65.80;101075.28;4980715;28;20080;-41
2020/12/15 08:31:13;;;;;;;27.92;24.05;;;;;;;13.15;65.86;101072.59;4978061;28;20045;-44
2020/12/15 08:33:39;;;;;;;30.55;24.90;;;;;;;13.21;65.92;101074.25;4980541;28;20450;-42
2020/12/15 08:36:09;;;;;;;35.72;22.77;;;;;;;13.19;66.15;101081.78;4977991;28;20031;-44
2020/12/15 08:38:35;;;;;;;29.63;22.17;;;;;;;13.24;65.99;101077.28;4980167;28;20039;-45
2020/12/15 08:41:05;;;;;;;32.22;23.98;;;;;;;13.16;66.24;101084.97;4978606;28;20479;-43
2020/12/15 08:43:31;;;;;;;25.70;21.95;;;;;;;13.18;66.56;101102.53;4979265;28;20093;-42
2020/12/15 08:45:57;;;;;;;31.60;24.77;;;;;;;13.33;66.37;101082.28;4980202;28;20030;-42
2020/12/15 08:48:24;;;;;;;43.22;26.50;;;;;;;13.24;66.08;101100.72;4980853;28;20368;-44
2020/12/15 08:50:51;;;;;;;44.85;28.05;;;;;;;13.29;65.93;101108.84;4983049;28;20073;-42
2020/12/15 08:53:18;;;;;;;37.10;24.83;;;;;;;13.37;65.75;101102.25;4978247;28;20031;-41
2020/12/15 08:55:45;;;;;;;31.75;28.05;;;;;;;13.34;66.30;101108.13;4980181;28;20458;-42
2020/12/15 08:58:12;;;;;;;31.17;27.98;;;;;;;13.36;66.10;101119.50;4978001;28;20101;-42
2020/12/15 09:00:42;;;;;;;36.55;27.92;;;;;;;13.37;65.82;101121.91;4986671;28;20030;-42
2020/12/15 09:03:12;;;;;;;32.40;26.05;;;;;;;13.46;66.25;101132.25;4980718;28;20026;-43
2020/12/15 09:05:54;;;;;;;34.10;27.70;;;;;;;13.46;66.45;101135.75;4985071;28;20058;-44
2020/12/15 09:08:21;;;;;;;32.35;27.30;;;;;;;13.48;66.47;101144.44;4977153;28;20030;-39
2020/12/15 09:10:48;;;;;;;34.58;26.05;;;;;;;13.49;66.81;101150.63;4979544;28;20049;-44
2020/12/15 09:13:14;;;;;;;29.55;24.95;;;;;;;13.49;67.11;101148.75;4978694;28;20089;-42
2020/12/15 09:15:49;;;;;;;35.83;28.77;;;;;;;13.51;67.14;101151.19;4980555;28;20077;-40
2020/12/15 09:18:16;;;;;;;33.67;27.65;;;;;;;13.47;67.35;101140.09;4977039;28;20165;-40
2020/12/15 09:20:43;;;;;;;29.33;26.23;;;;;;;13.60;66.68;101155.91;4982887;28;20031;-39
2020/12/15 09:23:09;;;;;;;28.23;25.17;;;;;;;13.70;66.79;101149.81;4977055;28;20057;-40
2020/12/15 09:25:35;;;;;;;28.40;24.60;;;;;;;13.71;67.20;101164.94;4989318;28;20026;-45
2020/12/15 09:28:00;;;;;;;43.15;28.02;;;;;;;13.63;67.70;101159.16;4989962;28;20027;-45
2020/12/15 09:30:26;;;;;;;48.45;36.70;;;;;;;13.60;68.00;101168.53;4988652;28;20085;-42
2020/12/15 09:32:51;;;;;;;55.45;35.63;;;;;;;13.74;68.25;101163.59;4988826;28;20063;-42
2020/12/15 09:35:17;;;;;;;41.65;29.20;;;;;;;13.85;67.39;101162.69;4990114;28;20072;-43
2020/12/15 09:37:43;;;;;;;37.63;26.50;;;;;;;13.95;67.70;101161.97;4989449;28;20045;-45
2020/12/15 09:40:10;;;;;;;31.77;24.48;;;;;;;14.17;68.81;101162.78;4989204;28;20022;-47
2020/12/15 09:42:43;;;;;;;32.15;21.95;;;;;;;14.61;68.45;101167.28;4990079;28;20110;-42
2020/12/15 09:45:09;;;;;;;22.48;20.20;;;;;;;14.92;67.23;101164.88;4981269;28;20035;-43
2020/12/15 09:47:40;;;;;;;25.73;22.38;;;;;;;15.41;65.98;101167.38;4986050;28;20034;-44
2020/12/15 09:50:06;;;;;;;26.02;22.17;;;;;;;15.67;65.50;101164.78;4976948;28;20043;-41
2020/12/15 09:52:31;;;;;;;27.00;21.27;;;;;;;15.79;65.05;101175.44;4978433;28;20053;-43
2020/12/15 09:54:56;;;;;;;20.48;17.30;;;;;;;16.09;64.40;101166.59;4980030;28;20096;-40
2020/12/15 09:57:22;;;;;;;18.00;16.17;;;;;;;16.54;63.10;101170.50;4979755;28;20117;-43
2020/12/15 09:59:47;;;;;;;20.98;14.70;;;;;;;16.59;63.12;101175.94;4986904;28;20026;-47
2020/12/15 10:02:13;;;;;;;18.85;15.88;;;;;;;16.72;63.28;101181.88;4980566;28;20027;-45
2020/12/15 10:04:38;;;;;;;24.80;17.52;;;;;;;17.11;61.45;101167.81;4978346;28;20043;-40
2020/12/15 10:07:04;;;;;;;25.13;15.38;;;;;;;17.28;60.91;101165.63;4976287;28;20039;-41
2020/12/15 10:09:29;;;;;;;16.80;14.45;;;;;;;17.54;60.29;101171.00;4977752;28;20027;-43
2020/12/15 10:11:55;;;;;;;19.80;14.43;;;;;;;17.76;60.11;101167.97;4978373;28;20134;-44
2020/12/15 10:14:20;;;;;;;15.43;11.60;;;;;;;17.83;59.73;101181.19;4978732;28;20371;-44
2020/12/15 10:16:46;;;;;;;12.88;10.45;;;;;;;18.07;58.84;101160.50;4978493;28;20060;-48
2020/12/15 10:19:11;;;;;;;8.15;6.28;;;;;;;18.27;58.72;101169.66;4980411;28;20054;-41
2020/12/15 10:21:37;;;;;;;45.55;10.70;;;;;;;18.28;58.89;101168.53;4979471;28;20063;-43
2020/12/15 10:24:03;;;;;;;24.52;8.60;;;;;;;18.47;58.11;101172.22;4976562;28;20039;-44
2020/12/15 10:26:29;;;;;;;8.55;7.65;;;;;;;18.81;56.74;101170.59;4977225;28;20037;-41
2020/12/15 10:28:56;;;;;;;14.43;8.05;;;;;;;19.41;56.50;101173.88;4982272;28;21026;-55
2020/12/15 10:31:22;;;;;;;17.10;9.43;;;;;;;20.03;53.64;101168.53;4979355;28;20573;-51
2020/12/15 10:33:47;;;;;;;8.93;5.68;;;;;;;19.62;52.69;101157.34;4981904;28;20023;-53
2020/12/15 10:36:14;;;;;;;9.50;3.67;;;;;;;19.64;52.39;101161.38;4980689;28;20031;-53
2020/12/15 10:38:40;;;;;;;9.07;6.78;;;;;;;19.58;52.97;101162.56;4990758;28;20026;-49
2020/12/15 10:41:07;;;;;;;10.60;4.05;;;;;;;19.79;52.25;101156.88;4991356;28;20038;-51
2020/12/15 10:43:33;;;;;;;6.05;4.72;;;;;;;19.67;52.86;101156.47;4993413;28;20366;-57
2020/12/15 10:45:58;;;;;;;17.48;6.18;;;;;;;19.90;52.76;101150.22;4981508;28;20109;-51
2020/12/15 10:48:24;;;;;;;12.02;5.80;;;;;;;20.09;52.00;101155.69;4980368;28;20037;-49
2020/12/15 10:50:49;;;;;;;7.35;4.55;;;;;;;20.28;52.00;101157.59;4980861;28;20133;-47
2020/12/15 10:53:15;;;;;;;22.15;6.53;;;;;;;20.33;52.33;101160.25;4988256;28;20478;-50
2020/12/15 10:55:41;;;;;;;15.18;4.43;;;;;;;20.23;52.13;101152.22;4988034;28;20069;-51
2020/12/15 10:58:06;;;;;;;5.97;4.85;;;;;;;20.27;52.44;101153.28;4990239;28;20060;-53
2020/12/15 11:00:32;;;;;;;8.00;5.18;;;;;;;20.23;52.54;101155.78;4989139;28;20124;-55
2020/12/15 11:02:58;;;;;;;5.78;3.60;;;;;;;20.10;52.09;101151.84;4988938;28;20030;-55
2020/12/15 11:05:23;;;;;;;5.97;3.60;;;;;;;20.02;52.74;101153.31;4988326;28;20034;-55
2020/12/15 11:07:49;;;;;;;3.45;2.60;;;;;;;20.29;51.99;101160.03;4991052;28;20034;-52
2020/12/15 11:10:14;;;;;;;8.30;5.75;;;;;;;20.28;52.41;101163.84;4992046;28;20062;-55
2020/12/15 11:12:40;;;;;;;4.68;3.70;;;;;;;20.16;52.27;101138.97;4987397;28;20052;-55
2020/12/15 11:15:05;;;;;;;10.45;6.32;;;;;;;20.30;52.21;101144.50;4989422;28;20120;-54
2020/12/15 11:17:31;;;;;;;4.35;3.38;;;;;;;20.71;51.61;101146.63;4988285;28;20073;-56
2020/12/15 11:19:57;;;;;;;4.20;3.30;;;;;;;20.40;51.66;101139.69;4988577;28;20085;-55